createdAt,value
2019-02-03T00:02:09.295Z,22.27
2019-02-03T00:04:35.150Z,23.27
2019-02-03T00:07:03.401Z,22.00
2019-02-03T00:09:28.733Z,22.42
2019-02-03T00:11:54.571Z,24.10
2019-02-03T00:14:20.410Z,23.20
2019-02-03T00:16:46.257Z,25.47
2019-02-03T00:19:12.465Z,24.77
2019-02-03T00:21:38.397Z,23.00
2019-02-03T00:24:04.305Z,21.13
2019-02-03T00:26:30.657Z,23.30
2019-02-03T00:28:56.469Z,22.20
2019-02-03T00:31:22.314Z,22.70
2019-02-03T00:33:48.207Z,24.80
2019-02-03T00:36:14.464Z,24.77
2019-02-03T00:38:40.382Z,23.77
2019-02-03T00:41:06.285Z,27.00
2019-02-03T00:43:32.442Z,24.13
2019-02-03T00:45:58.538Z,24.27
2019-02-03T00:48:24.598Z,23.70
2019-02-03T00:50:50.429Z,25.45
2019-02-03T00:53:16.354Z,24.53
2019-02-03T00:55:42.181Z,28.63
2019-02-03T00:58:08.390Z,21.53
2019-02-03T01:00:34.345Z,23.65
2019-02-03T01:03:00.166Z,23.03
2019-02-03T01:05:26.221Z,22.07
2019-02-03T01:07:52.146Z,21.40
2019-02-03T01:10:22.278Z,20.23
2019-02-03T01:12:48.457Z,20.90
2019-02-03T01:15:14.650Z,18.70
2019-02-03T01:17:40.524Z,20.62
2019-02-03T01:20:10.121Z,22.57
2019-02-03T01:22:37.751Z,20.25
2019-02-03T01:25:07.689Z,20.92
2019-02-03T01:27:33.633Z,21.93
2019-02-03T01:29:59.436Z,20.33
2019-02-03T01:32:26.158Z,22.42
2019-02-03T01:34:52.107Z,19.40
2019-02-03T01:37:17.927Z,20.83
2019-02-03T01:39:44.114Z,21.43
2019-02-03T01:42:09.937Z,21.70
2019-02-03T01:44:35.729Z,20.60
2019-02-03T01:47:01.869Z,20.43
2019-02-03T01:49:28.013Z,21.73
2019-02-03T01:51:53.835Z,20.75
2019-02-03T01:54:20.111Z,19.50
2019-02-03T01:56:45.956Z,24.12
2019-02-03T01:59:11.804Z,20.90
2019-02-03T02:01:37.614Z,26.90
2019-02-03T02:04:03.993Z,24.60
2019-02-03T02:06:29.821Z,22.70
2019-02-03T02:08:55.892Z,25.87
2019-02-03T02:11:22.026Z,20.68
2019-02-03T02:13:48.186Z,23.00
2019-02-03T02:16:14.290Z,21.85
2019-02-03T02:18:40.204Z,20.80
2019-02-03T02:21:06.438Z,23.67
2019-02-03T02:23:32.378Z,18.92
2019-02-03T02:25:58.460Z,22.13
2019-02-03T02:28:24.291Z,22.52
2019-02-03T02:30:50.239Z,20.60
2019-02-03T02:33:16.309Z,22.60
2019-02-03T02:35:42.122Z,30.68
2019-02-03T02:38:08.353Z,21.37
2019-02-03T02:40:34.181Z,19.42
2019-02-03T02:43:00.025Z,20.70
2019-02-03T02:45:26.105Z,21.00
2019-02-03T02:47:51.963Z,22.82
2019-02-03T02:50:26.962Z,19.60
2019-02-03T02:52:53.308Z,23.22
2019-02-03T02:55:19.196Z,23.32
2019-02-03T02:57:45.326Z,21.90
2019-02-03T03:00:17.315Z,21.23
2019-02-03T03:02:42.290Z,22.00
2019-02-03T03:05:09.384Z,18.70
2019-02-03T03:07:35.302Z,20.57
2019-02-03T03:10:01.113Z,17.87
2019-02-03T03:12:26.962Z,18.37
2019-02-03T03:14:53.071Z,25.00
2019-02-03T03:17:18.892Z,17.27
2019-02-03T03:19:44.958Z,19.40
2019-02-03T03:22:10.825Z,19.10
2019-02-03T03:24:39.443Z,19.20
2019-02-03T03:27:05.267Z,22.70
2019-02-03T03:29:34.069Z,19.30
2019-02-03T03:32:00.229Z,18.95
2019-02-03T03:34:28.804Z,22.20
2019-02-03T03:36:54.955Z,20.17
2019-02-03T03:39:24.106Z,20.30
2019-02-03T03:41:49.926Z,17.50
2019-02-03T03:44:18.873Z,17.23
2019-02-03T03:46:44.728Z,16.65
2019-02-03T03:49:13.534Z,15.10
2019-02-03T03:51:39.399Z,14.00
2019-02-03T03:54:05.198Z,15.47
2019-02-03T03:56:31.030Z,13.70
2019-02-03T03:58:56.844Z,15.40
2019-02-03T04:01:22.957Z,15.27
2019-02-03T04:03:48.784Z,14.85
2019-02-03T04:06:17.684Z,14.28
2019-02-03T04:08:45.592Z,20.82
2019-02-03T04:11:14.342Z,13.90
2019-02-03T04:13:40.189Z,11.88
2019-02-03T04:16:08.774Z,13.20
2019-02-03T04:18:34.608Z,8.70
2019-02-03T04:21:25.597Z,12.95
2019-02-03T04:23:51.439Z,13.70
2019-02-03T04:26:17.531Z,12.40
2019-02-03T04:28:43.370Z,12.82
2019-02-03T04:31:09.239Z,12.90
2019-02-03T04:33:35.655Z,12.73
2019-02-03T04:36:01.475Z,14.93
2019-02-03T04:38:27.627Z,15.47
2019-02-03T04:40:53.444Z,16.52
2019-02-03T04:43:19.260Z,17.40
2019-02-03T04:45:45.432Z,15.33
2019-02-03T04:48:11.256Z,13.15
2019-02-03T04:50:37.075Z,14.77
2019-02-03T04:53:03.315Z,16.70
2019-02-03T04:55:49.426Z,17.43
2019-02-03T04:58:15.253Z,13.65
2019-02-03T05:00:41.052Z,14.87
2019-02-03T05:03:07.185Z,16.03
2019-02-03T05:05:33.679Z,15.83
2019-02-03T05:07:59.492Z,18.12
2019-02-03T05:10:25.625Z,17.93
2019-02-03T05:12:51.717Z,14.10
2019-02-03T05:15:19.468Z,14.23
2019-02-03T05:17:45.786Z,13.72
2019-02-03T05:20:14.567Z,16.85
2019-02-03T05:22:40.901Z,18.65
2019-02-03T05:25:09.428Z,14.87
2019-02-03T05:27:35.282Z,13.70
2019-02-03T05:30:01.298Z,16.00
2019-02-03T05:32:27.178Z,13.70
2019-02-03T05:34:52.988Z,13.87
2019-02-03T05:37:18.812Z,14.40
2019-02-03T05:39:44.657Z,14.37
2019-02-03T05:42:10.805Z,14.58
2019-02-03T05:44:36.676Z,17.10
2019-02-03T05:47:02.846Z,15.73
2019-02-03T05:49:28.676Z,15.90
2019-02-03T05:51:54.490Z,19.00
2019-02-03T05:54:20.345Z,17.03
2019-02-03T05:56:46.170Z,17.40
2019-02-03T05:59:12.173Z,18.07
2019-02-03T06:01:38.295Z,18.83
2019-02-03T06:04:04.222Z,19.17
2019-02-03T06:06:30.060Z,20.30
2019-02-03T06:08:55.865Z,18.80
2019-02-03T06:11:21.973Z,19.20
2019-02-03T06:13:47.827Z,21.23
2019-02-03T06:16:13.680Z,20.37
2019-02-03T06:18:39.900Z,21.15
2019-02-03T06:21:05.735Z,19.47
2019-02-03T06:23:31.617Z,19.47
2019-02-03T06:25:57.450Z,21.57
2019-02-03T06:28:26.708Z,21.43
2019-02-03T06:30:56.326Z,20.30
2019-02-03T06:33:22.274Z,20.72
2019-02-03T06:35:48.237Z,22.85
2019-02-03T06:38:14.041Z,23.23
2019-02-03T06:40:39.894Z,27.03
2019-02-03T06:43:08.568Z,23.87
2019-02-03T06:45:39.053Z,26.25
2019-02-03T06:48:05.116Z,26.37
2019-02-03T06:50:31.212Z,24.82
2019-02-03T06:52:57.170Z,28.12
2019-02-03T06:55:22.999Z,26.27
2019-02-03T06:57:48.822Z,26.23
2019-02-03T07:00:15.465Z,24.27
2019-02-03T07:02:41.315Z,24.87
2019-02-03T07:05:10.385Z,27.20
2019-02-03T07:07:36.482Z,24.77
2019-02-03T07:10:26.012Z,26.85
2019-02-03T07:12:52.088Z,27.85
2019-02-03T07:15:18.282Z,26.40
2019-02-03T07:17:44.474Z,24.45
2019-02-03T07:20:12.332Z,26.15
2019-02-03T07:22:38.267Z,24.07
2019-02-03T07:25:04.365Z,26.80
2019-02-03T07:27:30.211Z,24.90
2019-02-03T07:29:56.276Z,29.13
2019-02-03T07:32:22.109Z,24.32
2019-02-03T07:34:47.961Z,29.47
2019-02-03T07:37:13.778Z,26.07
2019-02-03T07:39:40.166Z,23.60
2019-02-03T07:42:06.268Z,26.02
2019-02-03T07:44:32.358Z,25.35
2019-02-03T07:46:58.706Z,25.88
2019-02-03T07:49:27.621Z,24.98
2019-02-03T07:51:53.466Z,26.07
2019-02-03T07:54:19.305Z,24.17
2019-02-03T07:56:45.143Z,26.13
2019-02-03T07:59:17.749Z,25.52
2019-02-03T08:01:43.863Z,29.95
2019-02-03T08:04:09.716Z,22.52
2019-02-03T08:06:35.815Z,21.47
2019-02-03T08:09:02.008Z,22.42
2019-02-03T08:11:28.123Z,21.93
2019-02-03T08:13:53.999Z,25.52
2019-02-03T08:16:20.125Z,23.73
2019-02-03T08:18:45.930Z,22.03
2019-02-03T08:21:11.811Z,22.60
2019-02-03T08:23:37.621Z,24.90
2019-02-03T08:26:03.464Z,24.60
2019-02-03T08:28:29.541Z,23.20
2019-02-03T08:30:55.634Z,22.77
2019-02-03T08:33:25.032Z,23.73
2019-02-03T08:35:50.859Z,23.27
2019-02-03T08:38:19.730Z,23.67
2019-02-03T08:40:45.905Z,21.95
2019-02-03T08:43:14.565Z,22.50
2019-02-03T08:45:40.413Z,21.37
2019-02-03T08:48:06.749Z,22.43
2019-02-03T08:50:32.887Z,23.52
2019-02-03T08:52:58.709Z,21.57
2019-02-03T08:55:27.798Z,24.03
2019-02-03T08:57:53.647Z,20.55
2019-02-03T09:00:25.632Z,19.40
2019-02-03T09:02:51.432Z,20.80
2019-02-03T09:05:17.668Z,20.70
2019-02-03T09:07:44.314Z,20.68
2019-02-03T09:10:13.136Z,21.93
2019-02-03T09:12:39.107Z,19.35
2019-02-03T09:15:08.635Z,21.02
2019-02-03T09:17:34.443Z,60.28
2019-02-03T09:20:00.365Z,19.77
2019-02-03T09:22:26.799Z,19.00
2019-02-03T09:24:52.930Z,18.00
2019-02-03T09:27:19.018Z,19.17
2019-02-03T09:29:44.875Z,20.02
2019-02-03T09:32:11.337Z,17.07
2019-02-03T09:34:37.682Z,19.10
2019-02-03T09:37:06.429Z,17.80
2019-02-03T09:39:32.759Z,17.77
2019-02-03T09:42:01.663Z,16.10
2019-02-03T09:44:27.774Z,18.35
2019-02-03T09:46:56.673Z,17.40
2019-02-03T09:49:22.753Z,18.37
2019-02-03T09:51:51.946Z,16.97
2019-02-03T09:54:17.789Z,17.15
2019-02-03T09:56:46.644Z,17.70
2019-02-03T09:59:13.045Z,16.93
2019-02-03T10:01:38.983Z,16.12
2019-02-03T10:04:05.208Z,16.27
2019-02-03T10:06:31.044Z,14.30
2019-02-03T10:08:56.863Z,16.30
2019-02-03T10:11:23.147Z,14.37
2019-02-03T10:13:50.696Z,16.45
2019-02-03T10:16:16.537Z,18.48
2019-02-03T10:18:47.421Z,13.33
2019-02-03T10:21:13.534Z,11.55
2019-02-03T10:23:42.489Z,12.10
2019-02-03T10:26:08.298Z,12.43
2019-02-03T10:28:37.172Z,12.33
2019-02-03T10:31:03.270Z,13.88
2019-02-03T10:33:29.697Z,11.05
2019-02-03T10:35:55.503Z,11.93
2019-02-03T10:38:21.373Z,12.10
2019-02-03T10:40:47.288Z,12.10
2019-02-03T10:43:13.409Z,12.53
2019-02-03T10:45:42.277Z,11.05
2019-02-03T10:48:08.378Z,12.33
2019-02-03T10:50:37.464Z,13.50
2019-02-03T10:53:05.485Z,12.18
2019-02-03T10:55:31.312Z,11.33
2019-02-03T10:57:57.230Z,11.60
2019-02-03T11:00:29.306Z,12.00
2019-02-03T11:02:55.143Z,12.18
2019-02-03T11:05:23.714Z,11.50
2019-02-03T11:07:50.264Z,11.22
2019-02-03T11:10:22.711Z,12.40
2019-02-03T11:12:48.797Z,11.70
2019-02-03T11:15:15.559Z,10.65
2019-02-03T11:17:44.543Z,11.63
2019-02-03T11:20:14.070Z,12.37
2019-02-03T11:22:40.317Z,12.53
2019-02-03T11:25:07.640Z,12.20
2019-02-03T11:27:33.481Z,13.90
2019-02-03T11:29:59.332Z,12.40
2019-02-03T11:32:28.352Z,12.70
2019-02-03T11:34:54.168Z,13.80
2019-02-03T11:37:23.005Z,14.73
2019-02-03T11:39:48.851Z,13.85
2019-02-03T11:42:17.421Z,14.20
2019-02-03T11:44:43.561Z,13.08
2019-02-03T11:47:12.436Z,14.40
2019-02-03T11:49:38.271Z,12.33
2019-02-03T11:52:04.458Z,13.90
2019-02-03T11:54:30.596Z,12.25
2019-02-03T11:56:56.683Z,13.25
2019-02-03T11:59:22.526Z,12.70
2019-02-03T12:01:48.670Z,12.90
2019-02-03T12:04:16.733Z,12.20
2019-02-03T12:06:42.578Z,13.60
2019-02-03T12:09:13.374Z,12.87
2019-02-03T12:11:39.211Z,11.80
2019-02-03T12:14:08.016Z,14.00
2019-02-03T12:16:34.158Z,14.28
2019-02-03T12:19:03.007Z,11.68
2019-02-03T12:21:30.218Z,12.40
2019-02-03T12:23:56.311Z,10.70
2019-02-03T12:26:23.809Z,12.77
2019-02-03T12:28:49.666Z,11.33
2019-02-03T12:31:15.562Z,13.30
2019-02-03T12:33:41.684Z,12.27
2019-02-03T12:36:07.511Z,11.25
2019-02-03T12:38:33.657Z,13.40
2019-02-03T12:41:01.685Z,11.22
2019-02-03T12:43:27.538Z,12.68
2019-02-03T12:45:56.974Z,13.03
2019-02-03T12:48:22.810Z,14.55
2019-02-03T12:50:51.788Z,12.50
2019-02-03T12:53:18.121Z,14.75
2019-02-03T12:55:46.781Z,13.70
2019-02-03T12:58:12.892Z,14.38
2019-02-03T13:00:42.004Z,14.20
2019-02-03T13:03:07.949Z,15.70
2019-02-03T13:05:34.023Z,14.60
2019-02-03T13:08:00.461Z,16.48
2019-02-03T13:10:31.604Z,14.65
2019-02-03T13:12:57.548Z,16.27
2019-02-03T13:15:48.212Z,16.40
2019-02-03T13:18:14.034Z,15.10
2019-02-03T13:20:42.594Z,15.70
2019-02-03T13:23:08.419Z,17.30
2019-02-03T13:25:34.251Z,16.20
2019-02-03T13:28:00.480Z,17.77
2019-02-03T13:30:30.120Z,15.75
2019-02-03T13:32:56.244Z,15.70
2019-02-03T13:35:22.549Z,17.25
2019-02-03T13:37:48.639Z,17.70
2019-02-03T13:40:15.757Z,16.60
2019-02-03T13:42:41.979Z,18.15
2019-02-03T13:45:20.560Z,16.50
2019-02-03T13:47:39.088Z,16.73
2019-02-03T13:50:08.752Z,17.30
2019-02-03T13:52:34.611Z,16.20
2019-02-03T13:55:00.434Z,16.67
2019-02-03T13:57:26.554Z,16.50
2019-02-03T13:59:52.365Z,18.10
2019-02-03T14:02:18.547Z,15.90
2019-02-03T14:04:44.504Z,17.48
2019-02-03T14:07:10.318Z,17.50
2019-02-03T14:09:36.137Z,17.23
2019-02-03T14:12:02.405Z,17.80
2019-02-03T14:14:28.217Z,15.13
2019-02-03T14:16:54.068Z,16.10
2019-02-03T14:19:19.921Z,16.20
2019-02-03T14:21:45.746Z,15.87
2019-02-03T14:24:11.574Z,17.40
2019-02-03T14:26:37.757Z,17.60
2019-02-03T14:29:03.854Z,14.97
2019-02-03T14:31:29.989Z,16.65
2019-02-03T14:33:56.071Z,15.98
2019-02-03T14:36:21.913Z,15.75
2019-02-03T14:38:48.057Z,17.43
2019-02-03T14:41:13.886Z,16.27
2019-02-03T14:43:40.693Z,16.23
2019-02-03T14:46:06.793Z,15.80
2019-02-03T14:48:32.607Z,16.67
2019-02-03T14:50:58.466Z,16.50
2019-02-03T14:53:24.335Z,16.67
2019-02-03T14:55:52.025Z,16.63
2019-02-03T14:58:18.156Z,16.00
2019-02-03T15:00:45.948Z,16.45
2019-02-03T15:03:14.400Z,17.67
2019-02-03T15:05:40.520Z,18.07
2019-02-03T15:08:06.982Z,15.78
2019-02-03T15:10:32.902Z,17.07
2019-02-03T15:12:58.954Z,15.47
2019-02-03T15:15:27.077Z,15.72
2019-02-03T15:17:53.335Z,17.42
2019-02-03T15:20:21.468Z,16.20
2019-02-03T15:22:47.484Z,16.60
2019-02-03T15:25:13.836Z,14.47
2019-02-03T15:27:42.706Z,18.90
2019-02-03T15:30:19.050Z,16.25
2019-02-03T15:32:39.939Z,15.93
2019-02-03T15:35:08.332Z,17.37
2019-02-03T15:37:34.210Z,17.57
2019-02-03T15:40:00.104Z,17.33
2019-02-03T15:42:25.991Z,17.40
2019-02-03T15:44:52.146Z,16.40
2019-02-03T15:47:17.995Z,15.83
2019-02-03T15:49:44.096Z,16.60
2019-02-03T15:52:10.317Z,17.05
2019-02-03T15:54:38.970Z,16.97
2019-02-03T15:57:05.550Z,16.12
2019-02-03T15:59:34.190Z,16.23
2019-02-03T16:02:00.097Z,16.70
2019-02-03T16:04:27.474Z,15.83
2019-02-03T16:06:53.613Z,15.68
2019-02-03T16:09:19.419Z,14.70
2019-02-03T16:11:45.507Z,19.50
2019-02-03T16:14:11.366Z,15.20
2019-02-03T16:16:40.233Z,15.90
2019-02-03T16:19:12.480Z,13.08
2019-02-03T16:21:38.397Z,13.90
2019-02-03T16:24:05.056Z,12.98
2019-02-03T16:26:30.884Z,12.55
2019-02-03T16:28:57.378Z,11.65
2019-02-03T16:31:23.236Z,10.85
2019-02-03T16:33:49.440Z,12.83
2019-02-03T16:36:18.558Z,12.35
2019-02-03T16:38:44.680Z,54.88
2019-02-03T16:41:13.536Z,13.35
2019-02-03T16:43:48.629Z,12.88
2019-02-03T16:46:07.130Z,14.25
2019-02-03T16:48:33.261Z,11.90
2019-02-03T16:50:59.135Z,12.58
2019-02-03T16:53:25.509Z,14.07
2019-02-03T16:55:51.324Z,12.23
2019-02-03T16:58:19.971Z,10.57
2019-02-03T17:00:46.358Z,12.25
2019-02-03T17:03:15.251Z,11.90
2019-02-03T17:05:41.105Z,10.78
2019-02-03T17:08:09.965Z,11.93
2019-02-03T17:10:35.873Z,11.43
2019-02-03T17:13:04.967Z,12.43
2019-02-03T17:15:34.209Z,10.85
2019-02-03T17:18:00.117Z,12.68
2019-02-03T17:20:26.291Z,11.97
2019-02-03T17:22:52.336Z,12.63
2019-02-03T17:25:30.700Z,12.20
2019-02-03T17:27:56.903Z,13.38
2019-02-03T17:30:23.322Z,11.10
2019-02-03T17:32:49.621Z,10.68
2019-02-03T17:35:16.160Z,13.25
2019-02-03T17:37:42.414Z,12.98
2019-02-03T17:40:11.333Z,12.53
2019-02-03T17:42:37.283Z,11.55
2019-02-03T17:45:15.023Z,13.50
2019-02-03T17:47:41.243Z,12.93
2019-02-03T17:50:15.911Z,12.00
2019-02-03T17:52:41.957Z,12.63
2019-02-03T17:55:10.492Z,13.65
2019-02-03T17:57:36.592Z,12.82
2019-02-03T18:00:06.334Z,13.32
2019-02-03T18:02:33.890Z,11.53
2019-02-03T18:04:59.809Z,10.98
2019-02-03T18:07:26.131Z,12.90
2019-02-03T18:09:52.215Z,13.68
2019-02-03T18:12:18.150Z,12.03
2019-02-03T18:14:44.289Z,11.20
2019-02-03T18:17:10.117Z,9.20
2019-02-03T18:19:35.999Z,10.50
2019-02-03T18:22:01.830Z,9.43
2019-02-03T18:24:27.774Z,9.77
2019-02-03T18:26:53.721Z,9.30
2019-02-03T18:29:19.574Z,9.03
2019-02-03T18:31:45.383Z,7.53
2019-02-03T18:34:11.562Z,9.00
2019-02-03T18:36:37.405Z,6.33
2019-02-03T18:39:06.040Z,7.83
2019-02-03T18:41:31.906Z,7.70
2019-02-03T18:43:57.868Z,7.80
2019-02-03T18:46:23.715Z,7.50
2019-02-03T18:48:49.567Z,7.77
2019-02-03T18:51:15.669Z,7.30
2019-02-03T18:53:41.513Z,7.22
2019-02-03T18:56:07.439Z,7.30
2019-02-03T18:58:33.487Z,6.83
2019-02-03T19:00:59.318Z,6.80
2019-02-03T19:03:25.123Z,6.20
2019-02-03T19:05:51.410Z,6.40
2019-02-03T19:08:17.213Z,6.65
2019-02-03T19:10:43.365Z,5.40
2019-02-03T19:13:09.180Z,5.83
2019-02-03T19:15:35.143Z,5.43
2019-02-03T19:18:00.964Z,4.97
2019-02-03T19:20:32.054Z,5.13
2019-02-03T19:22:57.918Z,5.33
2019-02-03T19:25:24.051Z,5.60
2019-02-03T19:27:50.184Z,6.10
2019-02-03T19:30:18.624Z,5.78
2019-02-03T19:32:45.092Z,7.15
2019-02-03T19:35:13.251Z,6.87
2019-02-03T19:37:39.106Z,5.53
2019-02-03T19:40:08.770Z,6.03
2019-02-03T19:42:34.935Z,6.58
2019-02-03T19:45:00.874Z,5.22
2019-02-03T19:47:27.013Z,5.90
2019-02-03T19:49:52.874Z,6.80
2019-02-03T19:52:18.686Z,5.47
2019-02-03T19:54:46.937Z,5.50
2019-02-03T19:57:12.865Z,5.00
2019-02-03T19:59:46.571Z,6.40
2019-02-03T20:02:06.545Z,7.05
2019-02-03T20:04:32.398Z,5.87
2019-02-03T20:07:01.573Z,6.00
2019-02-03T20:09:27.696Z,5.62
2019-02-03T20:11:56.287Z,5.83
2019-02-03T20:14:22.128Z,6.05
2019-02-03T20:16:50.083Z,7.60
2019-02-03T20:19:15.962Z,5.60
2019-02-03T20:21:44.563Z,6.40
2019-02-03T20:24:10.432Z,5.80
2019-02-03T20:26:36.737Z,6.37
2019-02-03T20:29:02.954Z,5.87
2019-02-03T20:31:29.111Z,5.80
2019-02-03T20:33:58.005Z,4.17
2019-02-03T20:36:23.837Z,5.28
2019-02-03T20:38:51.179Z,4.70
2019-02-03T20:41:17.305Z,4.58
2019-02-03T20:43:46.638Z,5.83
2019-02-03T20:46:12.733Z,4.65
2019-02-03T20:48:41.748Z,3.95
2019-02-03T20:51:07.600Z,4.78
2019-02-03T20:53:36.208Z,5.00
2019-02-03T20:56:02.307Z,3.75
2019-02-03T20:58:31.517Z,5.15
2019-02-03T21:00:57.797Z,4.97
2019-02-03T21:03:23.632Z,4.65
2019-02-03T21:05:49.508Z,4.27
2019-02-03T21:08:15.465Z,4.27
2019-02-03T21:10:44.347Z,3.70
2019-02-03T21:13:11.565Z,5.20
2019-02-03T21:15:37.865Z,3.70
2019-02-03T21:18:04.211Z,4.35
2019-02-03T21:20:33.298Z,4.20
2019-02-03T21:22:59.720Z,5.10
2019-02-03T21:25:26.308Z,5.60
2019-02-03T21:27:52.277Z,4.25
2019-02-03T21:30:25.253Z,4.30
2019-02-03T21:32:51.403Z,5.15
2019-02-03T21:35:17.998Z,5.50
2019-02-03T21:37:43.840Z,7.12
2019-02-03T21:40:23.901Z,27.07
2019-02-03T21:42:49.774Z,6.10
2019-02-03T21:45:15.878Z,6.00
2019-02-03T21:47:41.711Z,5.62
2019-02-03T21:50:39.990Z,5.90
2019-02-03T21:53:05.815Z,4.58
2019-02-03T21:55:31.938Z,4.20
2019-02-03T21:57:57.757Z,4.10
2019-02-03T22:00:28.805Z,4.53
2019-02-03T22:02:55.004Z,4.65
2019-02-03T22:05:21.349Z,4.90
2019-02-03T22:07:47.269Z,4.80
2019-02-03T22:10:19.949Z,4.87
2019-02-03T22:12:46.012Z,5.30
2019-02-03T22:15:12.418Z,6.03
2019-02-03T22:17:38.281Z,4.97
2019-02-03T22:20:07.944Z,5.93
2019-02-03T22:22:34.528Z,5.40
2019-02-03T22:25:00.371Z,6.00
2019-02-03T22:27:26.215Z,5.80
2019-02-03T22:29:52.346Z,5.60
2019-02-03T22:32:18.166Z,4.20
2019-02-03T22:34:44.037Z,5.80
2019-02-03T22:37:10.138Z,6.27
2019-02-03T22:39:36.018Z,6.00
2019-02-03T22:42:02.119Z,6.00
2019-02-03T22:44:27.921Z,5.60
2019-02-03T22:46:53.758Z,5.60
2019-02-03T22:49:19.567Z,5.63
2019-02-03T22:51:45.982Z,5.20
2019-02-03T22:54:11.876Z,5.75
2019-02-03T22:56:37.713Z,5.97
2019-02-03T22:59:03.610Z,6.80
2019-02-03T23:01:29.632Z,5.80
2019-02-03T23:03:55.469Z,6.20
2019-02-03T23:06:21.410Z,6.93
2019-02-03T23:08:47.508Z,6.80
2019-02-03T23:11:13.942Z,6.92
2019-02-03T23:13:40.142Z,6.50
2019-02-03T23:16:06.086Z,6.10
2019-02-03T23:18:32.037Z,5.43
2019-02-03T23:20:58.183Z,6.07
2019-02-03T23:23:24.012Z,5.17
2019-02-03T23:25:49.849Z,6.57
2019-02-03T23:28:15.677Z,5.23
2019-02-03T23:30:42.026Z,5.20
2019-02-03T23:33:08.154Z,6.70
2019-02-03T23:35:33.990Z,11.38
2019-02-03T23:38:00.075Z,9.13
2019-02-03T23:40:26.006Z,7.92
2019-02-03T23:42:52.121Z,5.57
2019-02-03T23:45:18.087Z,5.20
2019-02-03T23:47:43.909Z,5.33
2019-02-03T23:50:17.631Z,6.23
2019-02-03T23:52:43.535Z,5.85
2019-02-03T23:55:09.490Z,6.30
2019-02-03T23:57:35.305Z,6.90
